createdAt,value
2018-12-01T00:02:24.434Z,100957.87
2018-12-01T00:04:51.752Z,100965.28
2018-12-01T00:07:18.914Z,100960.88
2018-12-01T00:09:46.195Z,100954.34
2018-12-01T00:12:13.364Z,100952.33
2018-12-01T00:14:40.538Z,100953.55
2018-12-01T00:17:07.824Z,100955.24
2018-12-01T00:19:35.012Z,100951.81
2018-12-01T00:22:02.188Z,100951.03
2018-12-01T00:24:29.431Z,100947.86
2018-12-01T00:26:56.604Z,100949.16
2018-12-01T00:29:23.837Z,100941.90
2018-12-01T00:31:51.059Z,100944.33
2018-12-01T00:34:18.249Z,100946.56
2018-12-01T00:36:45.418Z,100960.36
2018-12-01T00:39:12.666Z,100950.58
2018-12-01T00:41:39.843Z,100958.61
2018-12-01T00:44:07.038Z,100947.72
2018-12-01T00:46:34.273Z,100942.28
2018-12-01T00:49:01.443Z,100936.19
2018-12-01T00:51:28.603Z,100939.20
2018-12-01T00:53:55.824Z,100939.40
2018-12-01T00:56:22.990Z,100944.55
2018-12-01T00:58:50.238Z,100942.67
2018-12-01T01:01:17.502Z,100940.24
2018-12-01T01:03:44.675Z,100932.31
2018-12-01T01:06:11.847Z,100935.26
2018-12-01T01:08:39.062Z,100930.59
2018-12-01T01:11:06.232Z,100937.20
2018-12-01T01:13:33.411Z,100945.81
2018-12-01T01:16:00.622Z,100934.02
2018-12-01T01:18:27.792Z,100932.05
2018-12-01T01:20:54.986Z,100936.75
2018-12-01T01:23:22.211Z,100941.51
2018-12-01T01:25:49.362Z,100946.27
2018-12-01T01:28:16.540Z,100948.14
2018-12-01T01:30:43.747Z,100947.08
2018-12-01T01:33:24.038Z,100948.23
2018-12-01T01:35:51.271Z,100943.44
2018-12-01T01:38:18.435Z,100948.30
2018-12-01T01:40:45.731Z,100945.83
2018-12-01T01:43:12.992Z,100949.14
2018-12-01T01:45:40.152Z,100944.58
2018-12-01T01:48:07.317Z,100952.77
2018-12-01T01:50:34.561Z,100950.62
2018-12-01T01:53:01.711Z,100951.13
2018-12-01T01:55:28.880Z,100952.48
2018-12-01T01:57:56.095Z,100949.02
2018-12-01T02:00:23.342Z,100942.96
2018-12-01T02:02:51.155Z,100940.73
2018-12-01T02:05:19.488Z,100947.69
2018-12-01T02:07:46.672Z,100940.52
2018-12-01T02:10:14.931Z,100935.03
2018-12-01T02:12:42.200Z,100923.81
2018-12-01T02:15:10.488Z,100921.80
2018-12-01T02:17:37.676Z,100926.66
2018-12-01T02:20:07.787Z,100924.81
2018-12-01T02:22:34.995Z,100917.13
2018-12-01T02:25:02.163Z,100914.09
2018-12-01T02:27:29.398Z,100908.55
2018-12-01T02:29:56.559Z,100907.03
2018-12-01T02:32:23.711Z,100906.83
2018-12-01T02:34:50.941Z,100911.05
2018-12-01T02:37:18.117Z,100915.63
2018-12-01T02:39:45.291Z,100915.33
2018-12-01T02:42:12.492Z,100922.70
2018-12-01T02:45:03.961Z,100921.53
2018-12-01T02:47:31.256Z,100919.42
2018-12-01T02:49:58.399Z,100925.54
2018-12-01T02:52:25.578Z,100928.88
2018-12-01T02:54:52.766Z,100936.52
2018-12-01T02:57:19.908Z,100932.47
2018-12-01T02:59:47.084Z,100934.78
2018-12-01T03:02:14.302Z,100927.86
2018-12-01T03:04:43.378Z,100930.09
2018-12-01T03:07:10.526Z,100930.67
2018-12-01T03:09:37.731Z,100931.75
2018-12-01T03:12:04.998Z,100933.14
2018-12-01T03:14:33.035Z,100936.48
2018-12-01T03:17:00.258Z,100945.83
2018-12-01T03:19:27.501Z,100945.58
2018-12-01T03:21:54.651Z,100947.19
2018-12-01T03:24:21.877Z,100949.72
2018-12-01T03:26:49.150Z,100949.33
2018-12-01T03:29:16.322Z,100953.22
2018-12-01T03:31:43.578Z,100943.51
2018-12-01T03:34:10.734Z,100936.97
2018-12-01T03:36:38.002Z,100935.07
2018-12-01T03:39:08.395Z,100940.82
2018-12-01T03:41:36.207Z,100950.98
2018-12-01T03:44:03.684Z,100954.99
2018-12-01T03:46:30.887Z,100942.18
2018-12-01T03:48:58.039Z,100945.83
2018-12-01T03:51:25.199Z,100938.50
2018-12-01T03:53:52.408Z,100939.98
2018-12-01T03:56:19.598Z,100935.52
2018-12-01T03:58:46.796Z,100944.14
2018-12-01T04:01:14.022Z,100949.36
2018-12-01T04:03:41.189Z,100940.52
2018-12-01T04:06:08.344Z,100937.05
2018-12-01T04:08:35.616Z,100921.11
2018-12-01T04:11:02.803Z,100942.36
2018-12-01T04:13:30.000Z,100943.47
2018-12-01T04:15:57.217Z,100944.27
2018-12-01T04:18:24.355Z,100942.66
2018-12-01T04:20:51.494Z,100946.06
2018-12-01T04:23:18.714Z,100944.43
2018-12-01T04:25:45.886Z,100936.56
2018-12-01T04:28:13.075Z,100944.38
2018-12-01T04:30:40.282Z,100958.30
2018-12-01T04:33:07.494Z,100951.64
2018-12-01T04:35:34.738Z,100945.53
2018-12-01T04:38:02.009Z,100944.48
2018-12-01T04:40:29.182Z,100939.05
2018-12-01T04:42:56.408Z,100942.59
2018-12-01T04:45:23.688Z,100939.73
2018-12-01T04:47:50.871Z,100947.03
2018-12-01T04:50:18.286Z,100951.48
2018-12-01T04:52:46.460Z,100940.62
2018-12-01T04:55:14.683Z,100945.13
2018-12-01T04:57:41.852Z,100956.08
2018-12-01T05:00:14.135Z,100958.02
2018-12-01T05:02:41.301Z,100962.25
2018-12-01T05:05:10.939Z,100962.84
2018-12-01T05:07:38.141Z,100957.91
2018-12-01T05:10:09.490Z,100959.27
2018-12-01T05:12:36.678Z,100971.41
2018-12-01T05:15:05.765Z,100965.13
2018-12-01T05:17:32.926Z,100953.59
2018-12-01T05:20:00.077Z,100956.44
2018-12-01T05:22:27.298Z,100955.70
2018-12-01T05:24:54.454Z,100956.68
2018-12-01T05:27:21.627Z,100960.50
2018-12-01T05:29:48.844Z,100952.76
2018-12-01T05:32:16.095Z,100948.31
2018-12-01T05:34:43.266Z,100945.56
2018-12-01T05:37:10.498Z,100949.79
2018-12-01T05:39:37.670Z,100949.76
2018-12-01T05:42:04.922Z,100950.61
2018-12-01T05:44:32.154Z,100953.93
2018-12-01T05:46:59.318Z,100949.59
2018-12-01T05:49:26.474Z,100954.08
2018-12-01T05:51:53.851Z,100948.23
2018-12-01T05:54:21.033Z,100951.06
2018-12-01T05:56:48.191Z,100954.77
2018-12-01T05:59:15.423Z,100963.30
2018-12-01T06:01:42.701Z,100962.84
2018-12-01T06:04:09.863Z,100960.25
2018-12-01T06:06:37.106Z,100967.44
2018-12-01T06:09:07.058Z,100976.22
2018-12-01T06:11:34.239Z,100963.85
2018-12-01T06:14:01.479Z,100964.33
2018-12-01T06:16:28.665Z,100954.69
2018-12-01T06:18:55.826Z,100968.52
2018-12-01T06:21:23.038Z,100974.08
2018-12-01T06:23:50.211Z,100975.92
2018-12-01T06:26:17.390Z,100973.77
2018-12-01T06:28:44.643Z,100960.55
2018-12-01T06:31:11.811Z,100959.43
2018-12-01T06:33:38.986Z,100965.31
2018-12-01T06:36:06.191Z,100960.86
2018-12-01T06:38:33.396Z,100975.35
2018-12-01T06:41:00.877Z,100974.16
2018-12-01T06:43:28.132Z,100978.82
2018-12-01T06:45:55.347Z,100978.50
2018-12-01T06:48:22.539Z,100988.70
2018-12-01T06:50:49.768Z,100997.59
2018-12-01T06:53:17.039Z,100994.23
2018-12-01T06:55:45.488Z,100998.63
2018-12-01T06:58:12.735Z,101008.69
2018-12-01T07:00:40.183Z,100994.78
2018-12-01T07:03:07.357Z,100995.61
2018-12-01T07:05:34.689Z,100993.58
2018-12-01T07:08:01.868Z,100997.48
2018-12-01T07:10:29.094Z,100993.58
2018-12-01T07:12:58.436Z,100994.47
2018-12-01T07:15:32.144Z,100994.59
2018-12-01T07:17:59.459Z,100996.79
2018-12-01T07:20:26.626Z,100995.42
2018-12-01T07:22:53.799Z,100998.38
2018-12-01T07:25:21.032Z,100990.68
2018-12-01T07:27:48.203Z,101003.22
2018-12-01T07:30:15.445Z,101001.66
2018-12-01T07:32:43.644Z,101000.35
2018-12-01T07:35:10.949Z,101002.23
2018-12-01T07:37:38.419Z,101001.25
2018-12-01T07:40:11.523Z,101004.95
2018-12-01T07:42:38.799Z,101009.83
2018-12-01T07:45:08.421Z,101012.72
2018-12-01T07:47:35.775Z,101017.41
2018-12-01T07:50:05.200Z,101016.25
2018-12-01T07:52:33.379Z,101014.47
2018-12-01T07:55:01.621Z,101014.44
2018-12-01T07:57:28.939Z,101019.80
2018-12-01T07:59:56.435Z,101025.12
2018-12-01T08:02:24.769Z,101013.84
2018-12-01T08:04:52.528Z,101015.69
2018-12-01T08:07:21.454Z,101018.41
2018-12-01T08:09:48.932Z,101014.00
2018-12-01T08:12:16.199Z,101018.00
2018-12-01T08:14:43.442Z,101017.68
2018-12-01T08:17:10.659Z,101016.45
2018-12-01T08:19:37.926Z,101013.47
2018-12-01T08:22:05.399Z,101022.19
2018-12-01T08:24:32.763Z,101020.05
2018-12-01T08:26:59.984Z,101017.91
2018-12-01T08:29:27.122Z,101008.42
2018-12-01T08:31:54.648Z,101015.86
2018-12-01T08:34:21.850Z,101007.69
2018-12-01T08:36:49.156Z,101001.23
2018-12-01T08:39:16.492Z,101007.33
2018-12-01T08:41:44.199Z,101013.02
2018-12-01T08:44:11.712Z,101009.11
2018-12-01T08:46:39.032Z,101013.48
2018-12-01T08:49:10.239Z,101007.89
2018-12-01T08:51:37.605Z,101012.72
2018-12-01T08:54:04.944Z,101008.88
2018-12-01T08:56:32.253Z,101010.66
2018-12-01T08:58:59.506Z,101010.69
2018-12-01T09:01:26.763Z,101010.31
2018-12-01T09:03:53.926Z,101014.25
2018-12-01T09:06:21.157Z,101023.83
2018-12-01T09:08:48.426Z,101023.37
2018-12-01T09:11:15.627Z,101023.78
2018-12-01T09:13:42.795Z,101026.37
2018-12-01T09:16:10.115Z,101026.87
2018-12-01T09:18:37.386Z,101026.43
2018-12-01T09:21:04.679Z,101026.42
2018-12-01T09:23:31.913Z,101025.11
2018-12-01T09:25:59.079Z,101020.81
2018-12-01T09:28:26.339Z,101023.93
2018-12-01T09:30:53.895Z,101026.56
2018-12-01T09:33:21.069Z,101017.00
2018-12-01T09:35:48.242Z,101022.25
2018-12-01T09:38:15.487Z,101015.33
2018-12-01T09:40:42.654Z,101010.52
2018-12-01T09:43:09.918Z,101014.43
2018-12-01T09:45:37.111Z,101016.62
2018-12-01T09:48:04.363Z,101013.16
2018-12-01T09:50:31.522Z,101017.52
2018-12-01T09:52:58.774Z,101015.33
2018-12-01T09:55:27.098Z,101011.47
2018-12-01T09:57:54.314Z,101005.80
2018-12-01T10:00:24.626Z,101002.75
2018-12-01T10:02:51.793Z,100997.97
2018-12-01T10:05:19.528Z,100992.72
2018-12-01T10:07:46.754Z,100996.65
2018-12-01T10:10:15.866Z,100989.25
2018-12-01T10:12:43.424Z,100990.52
2018-12-01T10:15:19.353Z,100987.90
2018-12-01T10:17:46.540Z,100984.83
2018-12-01T10:20:17.947Z,100976.98
2018-12-01T10:22:45.182Z,100973.00
2018-12-01T10:25:13.467Z,100977.33
2018-12-01T10:27:40.650Z,100976.42
2018-12-01T10:30:09.587Z,100979.00
2018-12-01T10:32:36.790Z,100971.11
2018-12-01T10:35:05.679Z,100973.28
2018-12-01T10:37:32.918Z,100973.58
2018-12-01T10:40:00.099Z,100968.34
2018-12-01T10:42:27.313Z,100964.85
2018-12-01T10:44:54.624Z,100961.38
2018-12-01T10:47:21.799Z,100960.05
2018-12-01T10:49:48.988Z,100954.38
2018-12-01T10:52:16.221Z,100959.56
2018-12-01T10:54:43.398Z,100951.64
2018-12-01T10:57:10.988Z,100958.23
2018-12-01T10:59:38.231Z,100949.91
2018-12-01T11:02:11.478Z,100942.92
2018-12-01T11:04:39.543Z,100937.69
2018-12-01T11:07:07.029Z,100937.63
2018-12-01T11:09:34.288Z,100940.67
2018-12-01T11:12:01.547Z,100937.17
2018-12-01T11:14:29.535Z,100933.70
2018-12-01T11:16:56.738Z,100933.25
2018-12-01T11:19:24.024Z,100931.95
2018-12-01T11:21:51.244Z,100932.80
2018-12-01T11:24:19.517Z,100935.78
2018-12-01T11:26:46.776Z,100933.52
2018-12-01T11:29:13.973Z,100935.57
2018-12-01T11:31:41.173Z,100936.01
2018-12-01T11:34:08.412Z,100944.22
2018-12-01T11:36:35.598Z,100949.61
2018-12-01T11:39:03.143Z,100946.98
2018-12-01T11:41:30.387Z,100945.95
2018-12-01T11:43:57.551Z,100939.34
2018-12-01T11:46:24.745Z,100938.87
2018-12-01T11:48:52.003Z,100935.02
2018-12-01T11:51:19.146Z,100941.05
2018-12-01T11:53:46.289Z,100942.34
2018-12-01T11:56:13.538Z,100953.70
2018-12-01T11:58:40.759Z,100955.05
2018-12-01T12:01:07.902Z,100956.94
2018-12-01T12:03:35.122Z,100957.75
2018-12-01T12:06:02.323Z,100963.72
2018-12-01T12:08:29.502Z,100965.03
2018-12-01T12:10:56.694Z,100967.22
2018-12-01T12:13:25.762Z,100960.59
2018-12-01T12:15:52.975Z,100958.40
2018-12-01T12:18:20.950Z,100958.32
2018-12-01T12:20:48.132Z,100953.97
2018-12-01T12:23:15.263Z,100960.02
2018-12-01T12:25:42.484Z,100953.00
2018-12-01T12:28:09.655Z,100955.20
2018-12-01T12:30:36.925Z,100952.59
2018-12-01T12:33:04.263Z,100962.05
2018-12-01T12:35:31.407Z,100962.69
2018-12-01T12:37:58.595Z,100964.31
2018-12-01T12:40:26.363Z,100961.77
2018-12-01T12:42:55.655Z,100973.39
2018-12-01T12:45:22.971Z,100969.55
2018-12-01T12:47:50.206Z,100968.81
2018-12-01T12:50:18.292Z,100967.94
2018-12-01T12:52:46.328Z,100969.69
2018-12-01T12:55:16.271Z,100964.97
2018-12-01T12:57:43.449Z,100966.20
2018-12-01T13:00:16.464Z,100965.81
2018-12-01T13:02:49.905Z,100962.35
2018-12-01T13:05:18.394Z,100961.55
2018-12-01T13:07:45.567Z,100965.47
2018-12-01T13:10:13.872Z,100967.21
2018-12-01T13:12:41.181Z,100966.78
2018-12-01T13:15:09.791Z,100969.41
2018-12-01T13:17:36.969Z,100958.98
2018-12-01T13:20:12.059Z,100972.02
2018-12-01T13:22:39.234Z,100971.65
2018-12-01T13:25:14.027Z,100968.16
2018-12-01T13:27:48.012Z,100970.84
2018-12-01T13:30:16.635Z,100966.91
2018-12-01T13:32:43.860Z,100962.98
2018-12-01T13:35:11.063Z,100966.92
2018-12-01T13:37:38.324Z,100970.02
2018-12-01T13:40:09.860Z,100956.50
2018-12-01T13:42:37.228Z,100952.14
2018-12-01T13:45:06.389Z,100953.46
2018-12-01T13:47:33.698Z,100943.41
2018-12-01T13:50:00.912Z,100942.55
2018-12-01T13:52:28.220Z,100942.98
2018-12-01T13:54:55.492Z,100943.00
2018-12-01T13:57:22.702Z,100941.67
2018-12-01T13:59:49.933Z,100934.70
2018-12-01T14:02:17.124Z,100930.77
2018-12-01T14:04:44.443Z,100928.71
2018-12-01T14:07:11.688Z,100925.16
2018-12-01T14:09:38.893Z,100932.14
2018-12-01T14:12:06.106Z,100923.05
2018-12-01T14:14:34.855Z,100922.55
2018-12-01T14:17:02.091Z,100919.50
2018-12-01T14:19:29.327Z,100926.48
2018-12-01T14:21:56.581Z,100931.77
2018-12-01T14:24:23.922Z,100926.96
2018-12-01T14:26:51.176Z,100925.23
2018-12-01T14:29:18.467Z,100932.70
2018-12-01T14:31:46.207Z,100929.65
2018-12-01T14:34:13.435Z,100939.33
2018-12-01T14:36:40.699Z,100942.38
2018-12-01T14:39:07.940Z,100940.20
2018-12-01T14:41:35.208Z,100949.79
2018-12-01T14:44:02.632Z,100952.88
2018-12-01T14:46:29.836Z,100946.35
2018-12-01T14:48:57.039Z,100946.83
2018-12-01T14:51:24.251Z,100949.05
2018-12-01T14:53:51.542Z,100946.43
2018-12-01T14:56:18.743Z,100945.56
2018-12-01T14:58:45.982Z,100938.63
2018-12-01T15:01:14.188Z,100941.67
2018-12-01T15:03:41.381Z,100935.17
2018-12-01T15:06:08.609Z,100937.34
2018-12-01T15:08:35.825Z,100946.83
2018-12-01T15:11:03.051Z,100950.78
2018-12-01T15:13:30.389Z,100957.32
2018-12-01T15:15:57.617Z,100964.73
2018-12-01T15:18:24.842Z,100970.39
2018-12-01T15:20:52.113Z,100963.39
2018-12-01T15:23:19.349Z,100965.16
2018-12-01T15:25:46.519Z,100970.39
2018-12-01T15:28:13.803Z,100975.19
2018-12-01T15:30:41.041Z,100973.44
2018-12-01T15:33:10.632Z,100973.00
2018-12-01T15:35:38.129Z,100974.34
2018-12-01T15:38:06.838Z,100971.30
2018-12-01T15:40:34.075Z,100959.97
2018-12-01T15:43:01.348Z,100955.64
2018-12-01T15:45:32.132Z,100952.59
2018-12-01T15:47:59.307Z,100953.95
2018-12-01T15:50:26.546Z,100943.52
2018-12-01T15:52:55.233Z,100941.80
2018-12-01T15:55:23.895Z,100948.34
2018-12-01T15:57:51.790Z,100950.53
2018-12-01T16:00:25.414Z,100954.89
2018-12-01T16:02:52.846Z,100956.59
2018-12-01T16:05:21.075Z,100953.99
2018-12-01T16:07:49.554Z,100949.20
2018-12-01T16:10:18.031Z,100953.10
2018-12-01T16:12:46.625Z,100940.92
2018-12-01T16:15:18.147Z,100938.75
2018-12-01T16:17:45.427Z,100940.06
2018-12-01T16:20:13.693Z,100936.13
2018-12-01T16:22:41.027Z,100938.29
2018-12-01T16:25:09.875Z,100932.64
2018-12-01T16:27:37.485Z,100936.55
2018-12-01T16:30:09.911Z,100945.69
2018-12-01T16:32:37.168Z,100938.30
2018-12-01T16:35:04.859Z,100935.25
2018-12-01T16:37:32.095Z,100933.07
2018-12-01T16:39:59.291Z,100935.67
2018-12-01T16:42:26.480Z,100928.31
2018-12-01T16:44:53.813Z,100927.42
2018-12-01T16:47:21.002Z,100934.34
2018-12-01T16:49:48.296Z,100930.00
2018-12-01T16:52:15.536Z,100928.23
2018-12-01T16:54:42.727Z,100936.05
2018-12-01T16:57:09.942Z,100924.72
2018-12-01T16:59:37.243Z,100930.78
2018-12-01T17:02:04.451Z,100933.36
2018-12-01T17:04:31.619Z,100926.00
2018-12-01T17:06:58.827Z,100924.69
2018-12-01T17:09:26.012Z,100926.00
2018-12-01T17:11:53.207Z,100922.07
2018-12-01T17:14:20.467Z,100927.67
2018-12-01T17:16:47.679Z,100921.56
2018-12-01T17:19:14.897Z,100917.66
2018-12-01T17:21:42.119Z,100922.38
2018-12-01T17:24:09.313Z,100911.97
2018-12-01T17:26:37.232Z,100913.23
2018-12-01T17:29:05.181Z,100912.77
2018-12-01T17:31:32.360Z,100915.77
2018-12-01T17:33:59.643Z,100907.48
2018-12-01T17:36:26.872Z,100905.72
2018-12-01T17:38:54.384Z,100907.44
2018-12-01T17:41:23.949Z,100900.97
2018-12-01T17:43:56.972Z,100899.73
2018-12-01T17:46:24.580Z,100891.98
2018-12-01T17:48:51.756Z,100888.98
2018-12-01T17:51:18.988Z,100882.45
2018-12-01T17:53:49.891Z,100872.05
2018-12-01T17:56:17.379Z,100879.46
2018-12-01T17:58:44.772Z,100873.82
2018-12-01T18:01:11.992Z,100866.89
2018-12-01T18:03:39.207Z,100869.05
2018-12-01T18:06:08.495Z,100865.56
2018-12-01T18:08:35.681Z,100867.30
2018-12-01T18:11:02.961Z,100862.08
2018-12-01T18:13:30.187Z,100863.39
2018-12-01T18:15:57.386Z,100860.80
2018-12-01T18:18:24.566Z,100854.26
2018-12-01T18:20:51.927Z,100846.84
2018-12-01T18:23:19.395Z,100840.34
2018-12-01T18:25:50.954Z,100833.79
2018-12-01T18:28:21.677Z,100837.28
2018-12-01T18:30:48.869Z,100833.37
2018-12-01T18:33:18.989Z,100826.88
2018-12-01T18:35:46.158Z,100822.08
2018-12-01T18:38:13.403Z,100812.12
2018-12-01T18:40:40.650Z,100827.29
2018-12-01T18:43:08.386Z,100826.02
2018-12-01T18:45:36.134Z,100829.93
2018-12-01T18:48:03.383Z,100822.52
2018-12-01T18:50:30.575Z,100821.22
2018-12-01T18:52:59.579Z,100817.31
2018-12-01T18:55:28.512Z,100814.25
2018-12-01T18:57:55.858Z,100806.44
2018-12-01T19:00:25.695Z,100812.06
2018-12-01T19:02:52.994Z,100803.83
2018-12-01T19:05:20.164Z,100805.58
2018-12-01T19:07:47.416Z,100807.34
2018-12-01T19:10:15.627Z,100804.77
2018-12-01T19:12:42.919Z,100802.61
2018-12-01T19:15:11.205Z,100794.39
2018-12-01T19:17:38.440Z,100794.34
2018-12-01T19:20:09.497Z,100792.63
2018-12-01T19:22:36.673Z,100790.89
2018-12-01T19:25:05.732Z,100790.00
2018-12-01T19:27:32.911Z,100797.81
2018-12-01T19:30:04.920Z,100791.73
2018-12-01T19:32:27.604Z,100800.85
2018-12-01T19:34:54.898Z,100795.63
2018-12-01T19:37:22.069Z,100793.91
2018-12-01T19:39:49.290Z,100797.39
2018-12-01T19:42:16.587Z,100802.61
2018-12-01T19:44:43.764Z,100803.03
2018-12-01T19:47:11.045Z,100803.46
2018-12-01T19:49:38.215Z,100803.88
2018-12-01T19:52:05.416Z,100796.53
2018-12-01T19:54:32.683Z,100791.31
2018-12-01T19:56:59.939Z,100795.22
2018-12-01T19:59:27.107Z,100794.75
2018-12-01T20:01:54.352Z,100796.49
2018-12-01T20:04:21.572Z,100788.66
2018-12-01T20:06:48.802Z,100793.88
2018-12-01T20:09:16.095Z,100789.97
2018-12-01T20:11:43.275Z,100795.20
2018-12-01T20:14:13.279Z,100792.15
2018-12-01T20:16:42.655Z,100788.64
2018-12-01T20:19:09.893Z,100788.20
2018-12-01T20:21:37.095Z,100789.97
2018-12-01T20:24:05.538Z,100798.64
2018-12-01T20:26:32.708Z,100799.48
2018-12-01T20:28:59.902Z,100790.80
2018-12-01T20:31:27.103Z,100791.64
2018-12-01T20:33:56.480Z,100786.42
2018-12-01T20:36:35.170Z,100792.08
2018-12-01T20:39:10.994Z,100785.56
2018-12-01T20:41:38.183Z,100782.97
2018-12-01T20:44:05.682Z,100781.22
2018-12-01T20:46:32.812Z,100779.45
2018-12-01T20:49:00.043Z,100782.51
2018-12-01T20:51:27.199Z,100784.64
2018-12-01T20:53:54.407Z,100784.62
2018-12-01T20:56:23.511Z,100774.17
2018-12-01T20:58:50.675Z,100770.28
2018-12-01T21:01:17.807Z,100769.43
2018-12-01T21:03:45.018Z,100772.50
2018-12-01T21:06:12.147Z,100765.13
2018-12-01T21:08:39.294Z,100759.94
2018-12-01T21:11:08.663Z,100761.23
2018-12-01T21:13:35.876Z,100759.52
2018-12-01T21:16:03.068Z,100763.83
2018-12-01T21:18:30.255Z,100759.52
2018-12-01T21:20:57.406Z,100753.86
2018-12-01T21:23:24.628Z,100746.05
2018-12-01T21:25:51.808Z,100735.66
2018-12-01T21:28:18.934Z,100743.44
2018-12-01T21:30:46.821Z,100738.26
2018-12-01T21:33:17.284Z,100743.88
2018-12-01T21:35:44.428Z,100736.09
2018-12-01T21:38:13.057Z,100734.34
2018-12-01T21:40:41.110Z,100735.67
2018-12-01T21:43:08.576Z,100731.73
2018-12-01T21:45:35.724Z,100731.73
2018-12-01T21:48:03.486Z,100720.00
2018-12-01T21:50:30.713Z,100715.27
2018-12-01T21:52:57.844Z,100717.42
2018-12-01T21:55:25.055Z,100709.62
2018-12-01T21:57:53.033Z,100706.12
2018-12-01T22:00:24.775Z,100702.24
2018-12-01T22:02:54.503Z,100711.36
2018-12-01T22:05:55.603Z,100703.56
2018-12-01T22:08:22.751Z,100697.91
2018-12-01T22:10:55.323Z,100695.75
2018-12-01T22:13:22.564Z,100685.78
2018-12-01T22:15:49.804Z,100679.70
2018-12-01T22:18:17.047Z,100678.40
2018-12-01T22:20:44.184Z,100677.09
2018-12-01T22:23:11.336Z,100662.80
2018-12-01T22:25:38.561Z,100664.08
2018-12-01T22:28:07.563Z,100662.33
2018-12-01T22:30:34.735Z,100653.22
2018-12-01T22:33:01.925Z,100658.45
2018-12-01T22:35:29.407Z,100655.41
2018-12-01T22:37:57.435Z,100664.09
2018-12-01T22:40:26.034Z,100664.94
2018-12-01T22:42:54.758Z,100655.39
2018-12-01T22:45:21.882Z,100650.62
2018-12-01T22:47:49.078Z,100647.59
2018-12-01T22:50:18.456Z,100639.79
2018-12-01T22:52:46.067Z,100636.73
2018-12-01T22:55:14.949Z,100638.48
2018-12-01T22:57:44.581Z,100637.59
2018-12-01T23:00:29.143Z,100646.28
2018-12-01T23:02:56.330Z,100639.75
2018-12-01T23:05:23.565Z,100636.70
2018-12-01T23:07:50.747Z,100631.51
2018-12-01T23:10:17.931Z,100627.18
2018-12-01T23:12:45.866Z,100631.52
2018-12-01T23:15:14.186Z,100630.24
2018-12-01T23:17:43.952Z,100626.75
2018-12-01T23:20:15.446Z,100623.30
2018-12-01T23:22:42.566Z,100610.72
2018-12-01T23:25:10.588Z,100610.31
2018-12-01T23:27:37.976Z,100607.71
2018-12-01T23:30:12.701Z,100598.15
2018-12-01T23:32:40.015Z,100599.00
2018-12-01T23:35:07.143Z,100599.00
2018-12-01T23:37:34.286Z,100592.52
2018-12-01T23:40:01.478Z,100591.64
2018-12-01T23:42:28.659Z,100589.91
2018-12-01T23:44:55.838Z,100581.64
2018-12-01T23:47:23.027Z,100584.72
2018-12-01T23:49:50.163Z,100581.67
2018-12-01T23:52:17.338Z,100582.53
2018-12-01T23:54:44.539Z,100570.81
2018-12-01T23:57:11.677Z,100567.79
2018-12-01T23:59:38.812Z,100563.88
